Time;durP1;ratioP1;P1;durP2;ratioP2;P2;SDS_P1;SDS_P2;PMS_P1;PMS_P2;Temp;Humidity;BMP_temperature;BMP_pressure;BME280_temperature;BME280_humidity;BME280_pressure;Samples;Min_cycle;Max_cycle;Signal;HPM_P1;HPM_P2
2022/07/15 00:02:04;;;;;;;2.25;0.70;;;14.60;99.90;;;;;;4355574;28;10000250;-80
2022/07/15 00:04:29;;;;;;;1.38;0.60;;;14.60;99.90;;;;;;5059425;28;20017;-79
2022/07/15 00:06:55;;;;;;;1.48;0.70;;;14.50;99.90;;;;;;5057550;28;20043;-80
2022/07/15 00:09:21;;;;;;;0.80;0.77;;;14.50;99.90;;;;;;5052958;28;20024;-80
2022/07/15 00:11:46;;;;;;;1.13;0.70;;;14.50;99.90;;;;;;5061930;28;20103;-80
2022/07/15 00:14:12;;;;;;;1.98;1.00;;;14.50;99.90;;;;;;5061820;28;20104;-80
2022/07/15 00:16:37;;;;;;;3.05;0.90;;;14.50;99.90;;;;;;5055280;28;20013;-80
2022/07/15 00:19:03;;;;;;;1.92;0.90;;;14.50;99.90;;;;;;5051750;28;20016;-80
2022/07/15 00:21:29;;;;;;;0.85;0.70;;;14.50;99.90;;;;;;5048677;28;20086;-80
2022/07/15 00:23:54;;;;;;;2.22;0.80;;;14.50;99.90;;;;;;5057288;28;20056;-80
2022/07/15 00:26:20;;;;;;;1.73;0.70;;;14.50;99.90;;;;;;5058266;28;20478;-80
2022/07/15 00:28:46;;;;;;;1.35;0.85;;;14.60;99.90;;;;;;5052327;28;20020;-80
2022/07/15 00:31:11;;;;;;;2.05;0.70;;;14.60;99.90;;;;;;5050207;28;20634;-80
2022/07/15 00:33:37;;;;;;;4.45;0.88;;;14.60;99.90;;;;;;5068445;28;20111;-80
2022/07/15 00:36:03;;;;;;;4.30;0.80;;;14.50;99.90;;;;;;5046855;28;20440;-80
2022/07/15 00:38:28;;;;;;;2.13;0.77;;;14.50;99.90;;;;;;5051078;28;20028;-80
2022/07/15 00:40:54;;;;;;;5.28;0.90;;;14.50;99.90;;;;;;5062992;28;20103;-80
2022/07/15 00:43:19;;;;;;;2.60;0.70;;;14.50;99.90;;;;;;5044760;28;20025;-80
2022/07/15 00:45:46;;;;;;;4.05;1.00;;;14.50;99.90;;;;;;5071638;28;20029;-80
2022/07/15 00:48:11;;;;;;;2.17;0.88;;;14.50;99.90;;;;;;5057663;28;20024;-80
2022/07/15 00:50:37;;;;;;;1.50;0.77;;;14.50;99.90;;;;;;5051433;28;20103;-80
2022/07/15 00:53:07;;;;;;;1.73;0.80;;;14.50;99.90;;;;;;5054691;28;20222;-80
2022/07/15 00:55:39;;;;;;;3.03;0.80;;;14.50;99.90;;;;;;5059186;28;20477;-80
2022/07/15 00:58:07;;;;;;;1.23;0.85;;;14.50;99.90;;;;;;5058572;28;20029;-80
2022/07/15 01:00:32;;;;;;;1.00;0.70;;;14.50;99.90;;;;;;5057221;28;22844;-80
2022/07/15 01:02:59;;;;;;;1.77;0.88;;;14.50;99.90;;;;;;5059559;28;20032;-80
2022/07/15 01:05:26;;;;;;;2.05;0.60;;;14.50;99.90;;;;;;5046377;28;20025;-80
2022/07/15 01:07:52;;;;;;;1.50;0.73;;;14.50;99.90;;;;;;5064089;28;20040;-80
2022/07/15 01:10:20;;;;;;;2.67;0.70;;;14.50;99.90;;;;;;5060876;28;20271;-80
2022/07/15 01:12:48;;;;;;;0.60;0.50;;;14.50;99.90;;;;;;5061081;28;20040;-80
2022/07/15 01:15:14;;;;;;;3.35;0.75;;;14.50;99.90;;;;;;5067284;28;20468;-80
2022/07/15 01:17:40;;;;;;;1.25;0.60;;;14.50;99.90;;;;;;5060982;28;20025;-80
2022/07/15 01:20:07;;;;;;;1.00;0.60;;;14.50;99.90;;;;;;5066690;28;20493;-80
2022/07/15 01:22:33;;;;;;;1.05;0.85;;;14.40;99.90;;;;;;5059250;28;20025;-79
2022/07/15 01:24:58;;;;;;;1.30;0.65;;;14.40;99.90;;;;;;5057084;28;20029;-79
2022/07/15 01:27:25;;;;;;;1.48;0.70;;;14.30;99.90;;;;;;5057308;28;20091;-79
2022/07/15 01:29:50;;;;;;;3.55;0.90;;;14.30;99.90;;;;;;5050717;28;20037;-79
2022/07/15 01:32:16;;;;;;;1.65;0.80;;;14.30;99.90;;;;;;5059618;28;20037;-79
2022/07/15 01:34:42;;;;;;;1.92;0.80;;;14.30;99.90;;;;;;5050866;28;20031;-79
2022/07/15 01:37:08;;;;;;;2.88;0.90;;;14.30;99.90;;;;;;5074000;28;20110;-79
2022/07/15 01:39:33;;;;;;;2.50;0.80;;;14.30;99.90;;;;;;5062140;28;20021;-79
2022/07/15 01:41:59;;;;;;;1.98;0.88;;;14.30;99.90;;;;;;5065956;28;20017;-79
2022/07/15 01:44:24;;;;;;;1.30;0.70;;;14.30;99.90;;;;;;5068504;28;20024;-79
2022/07/15 01:46:50;;;;;;;2.08;0.68;;;14.30;99.90;;;;;;5050610;28;20029;-79
2022/07/15 01:49:21;;;;;;;1.17;0.77;;;14.30;99.90;;;;;;5061997;28;20025;-79
2022/07/15 01:51:48;;;;;;;1.38;0.70;;;14.30;99.90;;;;;;5059335;28;20029;-79
2022/07/15 01:54:13;;;;;;;2.53;0.90;;;14.30;99.90;;;;;;5049661;28;20408;-79
2022/07/15 01:56:39;;;;;;;3.88;1.17;;;14.30;99.90;;;;;;5064521;28;20024;-80
2022/07/15 01:59:05;;;;;;;5.05;0.98;;;14.40;99.90;;;;;;5058170;28;20039;-79
2022/07/15 02:01:31;;;;;;;2.88;1.10;;;14.40;99.90;;;;;;5068977;28;20032;-80
2022/07/15 02:03:56;;;;;;;3.55;0.90;;;14.40;99.90;;;;;;5068422;28;20102;-80
2022/07/15 02:06:22;;;;;;;1.80;0.90;;;14.40;99.90;;;;;;5057388;28;20114;-80
2022/07/15 02:08:48;;;;;;;4.22;1.00;;;14.50;99.90;;;;;;5047039;28;20599;-80
2022/07/15 02:11:13;;;;;;;3.72;1.30;;;14.50;99.90;;;;;;5056539;28;20043;-80
2022/07/15 02:13:39;;;;;;;2.63;1.00;;;14.50;99.90;;;;;;5047910;28;20064;-80
2022/07/15 02:16:05;;;;;;;2.50;0.95;;;14.60;99.90;;;;;;5050382;28;20032;-80
2022/07/15 02:18:30;;;;;;;5.70;1.08;;;14.70;99.90;;;;;;5056342;28;20037;-79
2022/07/15 02:20:56;;;;;;;3.63;0.90;;;14.70;99.90;;;;;;5061091;28;20024;-80
2022/07/15 02:23:23;;;;;;;1.88;0.88;;;14.60;99.90;;;;;;5067360;28;20017;-80
2022/07/15 02:25:49;;;;;;;1.30;0.80;;;14.50;99.90;;;;;;5066458;28;20028;-79
2022/07/15 02:28:15;;;;;;;3.22;0.90;;;14.40;99.90;;;;;;5079435;28;20039;-79
2022/07/15 02:30:42;;;;;;;1.50;0.80;;;14.30;99.90;;;;;;5051885;28;20037;-80
2022/07/15 02:33:09;;;;;;;2.03;0.90;;;14.20;99.90;;;;;;5051941;28;20474;-80
2022/07/15 02:35:35;;;;;;;3.42;1.10;;;14.10;99.90;;;;;;5063233;28;20424;-80
2022/07/15 02:38:02;;;;;;;1.75;0.90;;;14.10;99.90;;;;;;5050297;28;20017;-80
2022/07/15 02:40:28;;;;;;;1.92;1.00;;;14.10;99.90;;;;;;5049375;28;20040;-80
2022/07/15 02:42:56;;;;;;;4.18;1.40;;;14.10;99.90;;;;;;5063473;28;20548;-80
2022/07/15 02:45:23;;;;;;;5.97;1.48;;;14.10;99.90;;;;;;5046945;28;20029;-80
2022/07/15 02:47:50;;;;;;;4.10;1.50;;;14.30;99.90;;;;;;5060225;28;20025;-80
2022/07/15 02:50:16;;;;;;;5.50;1.48;;;14.40;99.90;;;;;;5056878;28;20025;-80
2022/07/15 02:52:42;;;;;;;3.67;1.23;;;14.40;99.90;;;;;;5054201;28;20037;-80
2022/07/15 02:55:09;;;;;;;2.65;1.25;;;14.40;99.90;;;;;;5058731;28;20039;-80
2022/07/15 02:57:35;;;;;;;5.15;1.30;;;14.40;99.90;;;;;;5055033;28;20059;-80
2022/07/15 03:00:02;;;;;;;3.55;1.50;;;14.40;99.90;;;;;;5050317;28;21816;-80
2022/07/15 03:02:27;;;;;;;3.60;1.30;;;14.40;99.90;;;;;;5060623;28;20024;-80
2022/07/15 03:04:53;;;;;;;3.40;1.20;;;14.20;99.90;;;;;;5067746;28;20634;-80
2022/07/15 03:07:19;;;;;;;2.42;1.00;;;14.20;99.90;;;;;;5053869;28;20031;-80
2022/07/15 03:09:45;;;;;;;5.35;1.40;;;14.00;99.90;;;;;;5047689;28;20036;-80
2022/07/15 03:12:10;;;;;;;2.13;0.95;;;14.00;99.90;;;;;;5048676;28;20024;-80
2022/07/15 03:14:36;;;;;;;2.17;1.20;;;13.90;99.90;;;;;;5059446;28;20028;-80
2022/07/15 03:17:01;;;;;;;1.73;1.10;;;13.80;99.90;;;;;;5055569;28;20021;-80
2022/07/15 03:19:27;;;;;;;3.88;1.23;;;13.80;99.90;;;;;;5064504;28;20020;-80
2022/07/15 03:21:53;;;;;;;3.28;1.08;;;13.90;99.90;;;;;;5054776;28;20564;-80
2022/07/15 03:24:18;;;;;;;3.92;1.27;;;13.90;99.90;;;;;;5066352;28;20036;-80
2022/07/15 03:26:44;;;;;;;2.35;1.02;;;13.90;99.90;;;;;;5061498;28;20025;-80
2022/07/15 03:29:10;;;;;;;2.88;0.98;;;14.00;99.90;;;;;;5070745;28;20028;-80
2022/07/15 03:31:36;;;;;;;1.38;1.10;;;14.00;99.90;;;;;;5056093;28;20029;-80
2022/07/15 03:34:02;;;;;;;2.55;0.93;;;14.00;99.90;;;;;;5063300;28;20028;-80
2022/07/15 03:36:27;;;;;;;6.32;1.10;;;13.90;99.90;;;;;;5060047;28;20052;-80
2022/07/15 03:38:53;;;;;;;2.22;0.98;;;13.90;99.90;;;;;;5062747;28;20060;-80
2022/07/15 03:41:19;;;;;;;1.23;1.02;;;13.90;99.90;;;;;;5060407;28;20033;-80
2022/07/15 03:43:45;;;;;;;2.67;1.10;;;13.90;99.90;;;;;;5063463;28;20032;-80
2022/07/15 03:46:11;;;;;;;4.00;1.45;;;13.80;99.90;;;;;;5051431;28;20028;-79
2022/07/15 03:48:37;;;;;;;1.52;1.05;;;13.80;99.90;;;;;;5053283;28;20032;-79
2022/07/15 03:51:03;;;;;;;1.88;1.10;;;13.80;99.90;;;;;;5070025;28;20028;-79
2022/07/15 03:53:29;;;;;;;3.63;1.40;;;13.70;99.90;;;;;;5050035;28;20029;-80
2022/07/15 03:55:54;;;;;;;3.70;1.17;;;13.70;99.90;;;;;;5065830;28;20028;-80
2022/07/15 03:58:20;;;;;;;4.30;1.00;;;13.60;99.90;;;;;;5055826;28;20560;-80
2022/07/15 04:00:45;;;;;;;5.00;1.50;;;13.60;99.90;;;;;;5056382;28;20161;-80
2022/07/15 04:03:11;;;;;;;2.80;1.33;;;13.60;99.90;;;;;;5056129;28;20021;-80
2022/07/15 04:05:38;;;;;;;3.13;1.55;;;13.60;99.90;;;;;;5064324;28;20054;-80
2022/07/15 04:08:04;;;;;;;4.35;1.65;;;13.50;99.90;;;;;;5056546;28;20318;-80
2022/07/15 04:10:31;;;;;;;2.22;1.30;;;13.50;99.90;;;;;;5078080;28;20486;-80
2022/07/15 04:12:56;;;;;;;2.80;1.40;;;13.60;99.90;;;;;;5055410;28;20489;-79
2022/07/15 04:15:22;;;;;;;4.30;1.23;;;13.50;99.90;;;;;;5055467;28;20051;-79
2022/07/15 04:17:48;;;;;;;2.10;1.20;;;13.50;99.90;;;;;;5063598;28;20063;-79
2022/07/15 04:20:13;;;;;;;2.70;1.23;;;13.60;99.90;;;;;;5053955;28;20017;-80
2022/07/15 04:22:43;;;;;;;5.75;1.50;;;13.60;99.90;;;;;;5054025;28;20473;-80
2022/07/15 04:25:11;;;;;;;2.40;1.30;;;13.60;99.90;;;;;;5048328;28;20028;-80
2022/07/15 04:27:37;;;;;;;3.22;1.35;;;13.60;99.90;;;;;;5048493;28;20063;-80
2022/07/15 04:30:07;;;;;;;3.35;1.20;;;13.60;99.90;;;;;;5044589;28;20055;-79
2022/07/15 04:32:33;;;;;;;2.22;1.17;;;13.70;99.90;;;;;;5050590;28;20025;-78
2022/07/15 04:34:59;;;;;;;1.85;1.10;;;13.80;99.90;;;;;;5046493;28;20033;-78
2022/07/15 04:37:24;;;;;;;2.78;1.10;;;13.80;99.90;;;;;;5075299;28;20041;-78
2022/07/15 04:39:50;;;;;;;2.92;1.30;;;13.80;99.90;;;;;;5052741;28;20021;-78
2022/07/15 04:42:15;;;;;;;3.05;1.40;;;13.90;99.90;;;;;;5061374;28;20073;-78
2022/07/15 04:44:41;;;;;;;2.10;1.20;;;13.90;99.90;;;;;;5048155;28;20096;-78
2022/07/15 04:47:07;;;;;;;3.53;1.40;;;13.90;99.90;;;;;;5061021;28;20020;-78
2022/07/15 04:52:17;;;;;;;3.17;1.30;;;14.00;99.90;;;;;;5058175;28;20396;-78
2022/07/15 04:54:43;;;;;;;2.50;1.38;;;14.00;99.90;;;;;;5058818;28;20024;-79
2022/07/15 04:57:11;;;;;;;4.35;1.48;;;14.10;99.90;;;;;;5059313;28;20064;-78
2022/07/15 04:59:37;;;;;;;4.50;1.30;;;14.10;99.90;;;;;;5060868;28;20174;-78
2022/07/15 05:02:03;;;;;;;4.22;1.00;;;14.20;99.90;;;;;;5066331;28;20019;-78
2022/07/15 05:04:29;;;;;;;1.75;1.25;;;14.20;99.90;;;;;;5055145;28;20462;-78
2022/07/15 05:06:56;;;;;;;1.55;1.20;;;14.20;99.90;;;;;;5048203;28;20025;-78
2022/07/15 05:09:21;;;;;;;5.70;1.60;;;14.30;99.90;;;;;;5052000;28;20028;-78
2022/07/15 05:11:47;;;;;;;4.38;1.60;;;14.30;99.90;;;;;;5052343;28;20089;-78
2022/07/15 05:14:12;;;;;;;4.88;1.55;;;14.40;99.90;;;;;;5062009;28;20020;-78
2022/07/15 05:16:38;;;;;;;2.15;1.40;;;14.50;99.90;;;;;;5054987;28;20024;-78
2022/07/15 05:19:04;;;;;;;3.17;1.30;;;14.50;99.90;;;;;;5052246;28;20063;-78
2022/07/15 05:21:30;;;;;;;2.17;1.30;;;14.60;99.90;;;;;;5047370;28;20020;-78
2022/07/15 05:23:55;;;;;;;2.67;1.20;;;14.70;99.90;;;;;;5055887;28;20254;-78
2022/07/15 05:26:21;;;;;;;4.93;1.40;;;14.80;99.90;;;;;;5048371;28;21312;-78
2022/07/15 05:28:46;;;;;;;6.00;1.50;;;14.80;99.90;;;;;;5048383;28;20056;-78
2022/07/15 05:31:12;;;;;;;3.33;1.40;;;14.90;99.90;;;;;;5058608;28;20097;-78
2022/07/15 05:33:38;;;;;;;4.13;1.50;;;15.00;99.90;;;;;;5064998;28;20044;-78
2022/07/15 05:36:04;;;;;;;4.80;1.70;;;15.00;99.90;;;;;;5049313;28;20068;-78
2022/07/15 05:38:30;;;;;;;5.40;1.52;;;15.10;99.90;;;;;;5062678;28;20552;-78
2022/07/15 05:40:56;;;;;;;4.07;1.73;;;15.10;99.90;;;;;;5059072;28;20124;-78
2022/07/15 05:43:23;;;;;;;5.13;1.38;;;15.20;99.90;;;;;;5059069;28;20028;-79
2022/07/15 05:45:49;;;;;;;3.33;1.15;;;15.20;99.90;;;;;;5044006;28;20017;-78
2022/07/15 05:48:15;;;;;;;2.53;1.25;;;15.20;99.90;;;;;;5053170;28;20025;-78
2022/07/15 05:50:40;;;;;;;5.05;1.60;;;15.20;99.90;;;;;;5041726;28;20087;-78
2022/07/15 05:53:06;;;;;;;5.68;1.85;;;15.20;99.90;;;;;;5054328;28;20535;-78
2022/07/15 05:55:32;;;;;;;4.13;1.80;;;15.30;99.90;;;;;;5057692;28;20036;-78
2022/07/15 05:57:57;;;;;;;6.85;2.05;;;15.40;99.90;;;;;;5046114;28;20036;-78
2022/07/15 06:00:23;;;;;;;5.10;1.60;;;15.40;99.90;;;;;;5056578;28;20017;-78
2022/07/15 06:02:48;;;;;;;7.15;1.67;;;15.50;99.90;;;;;;5050933;28;20081;-78
2022/07/15 06:05:14;;;;;;;3.60;1.40;;;15.60;99.90;;;;;;5052995;28;20066;-78
2022/07/15 06:07:41;;;;;;;4.75;1.55;;;15.70;99.90;;;;;;5055437;28;20584;-78
2022/07/15 06:10:08;;;;;;;3.22;1.30;;;15.70;99.90;;;;;;5051799;28;20024;-78
2022/07/15 06:12:34;;;;;;;6.63;1.80;;;15.70;99.90;;;;;;5062899;28;20040;-78
2022/07/15 06:14:59;;;;;;;5.10;1.23;;;15.70;99.90;;;;;;5061821;28;20040;-78
2022/07/15 06:17:25;;;;;;;4.15;1.50;;;15.70;99.90;;;;;;5066349;28;20036;-78
2022/07/15 06:19:51;;;;;;;4.28;1.40;;;15.70;99.90;;;;;;5051093;28;20032;-78
2022/07/15 06:22:17;;;;;;;5.57;1.55;;;15.80;99.90;;;;;;5058763;28;20055;-78
2022/07/15 06:24:42;;;;;;;4.68;1.30;;;16.00;99.90;;;;;;5064756;28;20032;-78
2022/07/15 06:27:08;;;;;;;5.22;1.70;;;16.10;99.90;;;;;;5059966;28;20643;-78
2022/07/15 06:29:34;;;;;;;4.55;1.40;;;16.20;99.90;;;;;;5053828;28;20133;-78
2022/07/15 06:32:00;;;;;;;4.57;1.50;;;16.30;99.90;;;;;;5058763;28;20301;-78
2022/07/15 06:34:25;;;;;;;5.25;1.30;;;16.60;99.90;;;;;;5059223;28;20719;-78
2022/07/15 06:36:51;;;;;;;4.95;1.67;;;16.80;99.90;;;;;;5073325;28;20044;-78
2022/07/15 06:39:17;;;;;;;4.80;1.20;;;17.30;99.90;;;;;;5052393;28;20351;-78
2022/07/15 06:41:42;;;;;;;7.78;1.48;;;17.60;99.90;;;;;;5062781;28;20112;-78
2022/07/15 06:44:08;;;;;;;6.18;1.30;;;17.90;99.90;;;;;;5049281;28;20470;-78
2022/07/15 06:46:34;;;;;;;4.60;1.40;;;18.10;99.90;;;;;;5055944;28;20115;-78
2022/07/15 06:48:59;;;;;;;5.25;1.08;;;18.20;99.90;;;;;;5056477;28;20058;-78
2022/07/15 06:51:25;;;;;;;3.53;1.00;;;18.30;99.90;;;;;;5064580;28;20149;-77
2022/07/15 06:53:51;;;;;;;4.72;1.40;;;18.30;99.90;;;;;;5067773;28;20042;-77
2022/07/15 06:56:16;;;;;;;6.68;1.52;;;18.30;99.90;;;;;;5060094;28;20500;-77
2022/07/15 06:58:42;;;;;;;5.97;1.23;;;18.20;99.90;;;;;;5057306;28;20021;-78
2022/07/15 07:01:08;;;;;;;5.90;0.95;;;18.00;99.90;;;;;;5057672;28;20397;-78
2022/07/15 07:03:34;;;;;;;5.70;1.20;;;17.90;99.90;;;;;;5053621;28;20032;-78
2022/07/15 07:06:00;;;;;;;7.57;1.88;;;17.80;99.90;;;;;;5056112;28;20022;-77
2022/07/15 07:08:27;;;;;;;5.18;1.30;;;17.70;99.90;;;;;;5051476;28;20028;-77
2022/07/15 07:10:53;;;;;;;3.95;1.40;;;17.60;99.90;;;;;;5059152;28;20036;-77
2022/07/15 07:13:19;;;;;;;7.00;1.30;;;17.50;99.90;;;;;;5064873;28;20685;-77
2022/07/15 07:15:45;;;;;;;5.90;1.40;;;17.50;99.90;;;;;;5046381;28;20246;-78
2022/07/15 07:18:10;;;;;;;5.65;1.30;;;17.50;99.90;;;;;;5049907;28;20057;-78
2022/07/15 07:20:37;;;;;;;6.45;1.33;;;17.50;99.90;;;;;;5047810;28;20659;-78
2022/07/15 07:23:03;;;;;;;6.03;1.40;;;17.50;99.90;;;;;;5064071;28;20025;-77
2022/07/15 07:25:29;;;;;;;4.30;1.13;;;17.60;99.90;;;;;;5052807;28;20481;-77
2022/07/15 07:27:55;;;;;;;5.63;1.20;;;17.70;99.90;;;;;;5046747;28;20029;-77
2022/07/15 07:30:20;;;;;;;5.03;1.42;;;18.00;99.90;;;;;;5045245;28;20037;-77
2022/07/15 07:32:46;;;;;;;6.82;1.30;;;18.30;99.90;;;;;;5047095;28;20571;-77
2022/07/15 07:35:11;;;;;;;3.92;1.25;;;18.40;99.90;;;;;;5055760;28;20115;-77
2022/07/15 07:37:38;;;;;;;8.18;1.35;;;18.40;99.90;;;;;;5050996;28;20048;-77
2022/07/15 07:40:05;;;;;;;5.95;1.45;;;18.40;99.90;;;;;;5045710;28;20021;-78
2022/07/15 07:42:30;;;;;;;5.25;1.20;;;18.30;99.90;;;;;;5047792;28;20031;-78
2022/07/15 07:44:57;;;;;;;6.20;1.00;;;18.20;99.90;;;;;;5064606;28;20071;-78
2022/07/15 07:47:23;;;;;;;5.13;1.10;;;18.30;99.90;;;;;;5047107;28;20033;-78
2022/07/15 07:49:48;;;;;;;6.35;1.33;;;18.30;99.90;;;;;;5044597;28;20029;-78
2022/07/15 07:52:15;;;;;;;6.22;1.38;;;18.20;99.90;;;;;;5047309;28;20062;-78
2022/07/15 07:54:41;;;;;;;5.15;1.50;;;18.40;99.90;;;;;;5053035;28;20032;-78
2022/07/15 07:57:07;;;;;;;7.10;1.42;;;18.60;99.90;;;;;;5055553;28;20056;-78
2022/07/15 07:59:32;;;;;;;7.55;1.40;;;18.70;99.90;;;;;;5050424;28;20052;-78
2022/07/15 08:01:58;;;;;;;8.75;1.23;;;18.60;99.90;;;;;;5046115;28;20036;-78
2022/07/15 08:04:24;;;;;;;5.45;1.35;;;18.60;99.90;;;;;;5047782;28;20266;-78
2022/07/15 08:06:50;;;;;;;4.13;1.20;;;18.50;99.90;;;;;;5047164;28;20377;-78
2022/07/15 08:09:16;;;;;;;7.53;1.50;;;18.50;99.90;;;;;;5045955;28;20111;-78
2022/07/15 08:11:42;;;;;;;6.18;1.10;;;18.40;99.90;;;;;;5064463;28;20141;-78
2022/07/15 08:14:08;;;;;;;3.63;1.30;;;18.40;99.90;;;;;;5056842;28;20250;-78
2022/07/15 08:16:34;;;;;;;7.03;1.27;;;18.50;99.90;;;;;;5054837;28;20032;-78
2022/07/15 08:19:00;;;;;;;3.72;1.20;;;18.50;99.90;;;;;;5048681;28;20025;-78
2022/07/15 08:21:25;;;;;;;5.13;0.90;;;18.70;99.90;;;;;;5058058;28;20032;-78
2022/07/15 08:23:51;;;;;;;6.38;1.30;;;18.80;99.90;;;;;;5053929;28;20033;-78
2022/07/15 08:26:23;;;;;;;2.25;0.82;;;19.00;99.90;;;;;;5045675;28;20181;-78
2022/07/15 08:28:49;;;;;;;6.60;1.27;;;19.20;99.90;;;;;;5061311;28;20680;-77
2022/07/15 08:31:16;;;;;;;2.45;1.00;;;19.30;99.90;;;;;;5065458;28;20295;-78
2022/07/15 08:33:42;;;;;;;3.78;1.20;;;19.40;99.70;;;;;;5050753;28;20033;-78
2022/07/15 08:36:08;;;;;;;3.75;1.08;;;19.50;99.30;;;;;;5065904;28;20090;-78
2022/07/15 08:38:33;;;;;;;7.35;1.02;;;19.60;99.40;;;;;;5063662;28;20101;-78
2022/07/15 08:41:00;;;;;;;5.82;1.25;;;19.70;99.00;;;;;;5065043;28;20078;-78
2022/07/15 08:43:26;;;;;;;5.53;1.02;;;19.80;98.80;;;;;;5063787;28;20044;-78
2022/07/15 08:45:52;;;;;;;5.50;0.98;;;19.90;96.90;;;;;;5063511;28;20437;-78
2022/07/15 08:48:19;;;;;;;4.72;0.88;;;20.00;96.40;;;;;;5063450;28;20119;-77
2022/07/15 08:50:45;;;;;;;4.65;1.10;;;20.00;94.90;;;;;;5050344;28;20366;-78
2022/07/15 08:53:11;;;;;;;6.40;1.00;;;20.00;95.20;;;;;;5057511;28;20404;-78
2022/07/15 08:55:36;;;;;;;4.60;0.90;;;19.90;93.90;;;;;;5065794;28;20103;-77
2022/07/15 08:58:02;;;;;;;4.38;1.10;;;19.90;94.40;;;;;;5046918;28;20036;-78
2022/07/15 09:00:28;;;;;;;2.95;0.63;;;19.70;93.30;;;;;;5055656;28;20052;-75
2022/07/15 09:03:06;;;;;;;4.45;0.85;;;19.70;91.00;;;;;;5048999;28;20021;-76
2022/07/15 09:05:33;;;;;;;2.53;0.77;;;19.70;90.70;;;;;;5057176;28;20029;-76
2022/07/15 09:08:13;;;;;;;2.88;0.70;;;19.70;90.50;;;;;;5049979;28;20024;-76
2022/07/15 09:10:48;;;;;;;1.27;0.63;;;19.80;90.10;;;;;;5053028;28;20512;-76
2022/07/15 09:13:32;;;;;;;4.45;0.75;;;19.70;90.00;;;;;;5048782;28;20505;-76
2022/07/15 09:16:24;;;;;;;3.72;0.82;;;19.80;88.00;;;;;;5050050;28;20430;-76
2022/07/15 09:18:50;;;;;;;4.35;1.08;;;19.90;88.60;;;;;;5053573;28;20090;-76
2022/07/15 09:21:18;;;;;;;3.30;0.80;;;20.10;89.00;;;;;;5061371;28;20428;-76
2022/07/15 09:23:44;;;;;;;2.72;0.80;;;20.20;88.70;;;;;;5063273;28;20035;-76
2022/07/15 09:26:28;;;;;;;2.97;0.70;;;20.40;86.60;;;;;;5046617;28;20037;-76
2022/07/15 09:28:54;;;;;;;2.75;0.57;;;20.70;84.60;;;;;;5052465;28;20036;-76
2022/07/15 09:34:17;;;;;;;3.35;0.68;;;21.00;81.40;;;;;;5049357;28;20079;-76
2022/07/15 09:36:50;;;;;;;2.05;0.70;;;21.10;81.20;;;;;;5060769;28;20509;-76
2022/07/15 09:39:17;;;;;;;2.83;0.90;;;21.20;79.60;;;;;;5051848;28;20110;-76
2022/07/15 09:41:44;;;;;;;3.58;0.77;;;21.30;79.70;;;;;;5056280;28;20068;-76
2022/07/15 09:44:10;;;;;;;3.63;0.65;;;21.20;78.20;;;;;;5048770;28;20029;-76
2022/07/15 09:46:43;;;;;;;2.65;0.70;;;21.10;78.00;;;;;;5054233;28;20032;-76
2022/07/15 09:49:09;;;;;;;1.88;0.50;;;20.90;75.00;;;;;;5062053;28;20040;-76
2022/07/15 09:51:44;;;;;;;2.88;0.60;;;20.80;75.00;;;;;;5065107;28;20447;-76
2022/07/15 09:54:12;;;;;;;3.38;0.77;;;20.70;75.50;;;;;;5059717;28;20034;-76
2022/07/15 09:56:38;;;;;;;2.65;0.70;;;20.80;76.10;;;;;;5056629;28;20025;-76
2022/07/15 09:59:04;;;;;;;3.70;0.70;;;20.90;75.10;;;;;;5049002;28;20436;-76
2022/07/15 10:01:30;;;;;;;1.95;0.70;;;20.90;76.50;;;;;;5051354;28;20023;-76
2022/07/15 10:03:56;;;;;;;2.33;0.55;;;20.90;76.00;;;;;;5058613;28;20047;-76
2022/07/15 10:06:26;;;;;;;1.98;0.70;;;21.00;74.70;;;;;;5068310;28;20089;-76
2022/07/15 10:08:53;;;;;;;4.28;0.60;;;21.40;74.30;;;;;;5050028;28;20737;-76
2022/07/15 10:11:20;;;;;;;3.13;0.70;;;21.90;73.00;;;;;;5064655;28;20190;-76
2022/07/15 10:14:06;;;;;;;4.80;0.77;;;21.90;69.60;;;;;;5067829;28;20036;-76
2022/07/15 10:16:55;;;;;;;1.90;0.63;;;22.00;68.90;;;;;;5060867;28;20153;-73
2022/07/15 10:19:37;;;;;;;2.47;0.70;;;22.30;68.90;;;;;;5066341;28;20032;-74
2022/07/15 10:22:22;;;;;;;5.28;0.80;;;22.40;68.60;;;;;;5062191;28;20036;-74
2022/07/15 10:25:15;;;;;;;1.70;0.60;;;22.40;65.30;;;;;;5052567;28;20549;-74
2022/07/15 10:28:02;;;;;;;2.88;0.75;;;22.30;63.40;;;;;;5055037;28;20051;-75
2022/07/15 10:30:28;;;;;;;3.88;0.73;;;22.20;65.10;;;;;;5056268;28;20592;-74
2022/07/15 10:33:03;;;;;;;3.05;0.60;;;22.20;63.30;;;;;;5050919;28;20033;-75
2022/07/15 10:35:42;;;;;;;2.97;0.70;;;22.00;61.60;;;;;;5056214;28;20616;-74
2022/07/15 10:38:23;;;;;;;2.20;0.70;;;21.90;61.90;;;;;;5061827;28;20114;-75
2022/07/15 10:41:05;;;;;;;3.33;0.70;;;21.80;62.80;;;;;;5066595;28;20036;-75
2022/07/15 10:43:46;;;;;;;1.80;0.60;;;21.60;61.60;;;;;;5057623;28;20114;-75
2022/07/15 10:46:20;;;;;;;1.60;0.60;;;21.70;63.60;;;;;;5056234;28;20024;-74
2022/07/15 10:48:58;;;;;;;1.77;0.50;;;21.80;63.30;;;;;;5051054;28;20017;-75
2022/07/15 10:51:35;;;;;;;2.42;0.90;;;21.90;63.20;;;;;;5055199;28;20037;-75
2022/07/15 10:54:25;;;;;;;2.22;0.52;;;21.90;64.60;;;;;;5052858;28;20028;-75
2022/07/15 10:56:51;;;;;;;2.85;0.85;;;21.80;66.30;;;;;;5049756;28;20140;-74
2022/07/15 10:59:20;;;;;;;2.22;0.68;;;21.60;64.70;;;;;;5071038;28;20395;-75
2022/07/15 11:01:48;;;;;;;3.35;0.80;;;21.50;64.70;;;;;;5064321;28;20017;-74
2022/07/15 11:04:18;;;;;;;2.03;0.60;;;21.40;65.60;;;;;;5050411;28;20473;-75
2022/07/15 11:07:09;;;;;;;3.72;0.77;;;21.40;65.90;;;;;;5062107;28;20025;-75
2022/07/15 11:10:11;;;;;;;4.38;0.90;;;21.60;65.70;;;;;;5051527;28;20063;-75
2022/07/15 11:12:37;;;;;;;1.60;0.50;;;21.70;65.00;;;;;;4698246;28;10000317;-75
2022/07/15 11:15:07;;;;;;;2.97;0.60;;;21.90;65.60;;;;;;5047022;28;20076;-76
2022/07/15 11:17:32;;;;;;;3.15;1.00;;;22.00;64.50;;;;;;5046509;28;20512;-75
2022/07/15 11:20:03;;;;;;;4.32;1.02;;;22.10;63.20;;;;;;5043467;28;20021;-75
2022/07/15 11:22:29;;;;;;;2.53;0.73;;;22.00;62.80;;;;;;5051081;28;20052;-75
2022/07/15 11:24:56;;;;;;;2.72;0.60;;;22.00;62.80;;;;;;5055727;28;20440;-74
2022/07/15 11:27:24;;;;;;;1.98;0.60;;;22.10;63.20;;;;;;5053738;28;20095;-74
2022/07/15 11:30:03;;;;;;;2.85;0.73;;;22.20;61.50;;;;;;5040286;28;20536;-74
2022/07/15 11:32:35;;;;;;;1.48;0.70;;;22.10;62.40;;;;;;5051281;28;20056;-74
2022/07/15 11:35:02;;;;;;;8.65;0.95;;;21.90;63.20;;;;;;5052285;28;20276;-74
2022/07/15 11:37:33;;;;;;;3.25;0.77;;;21.80;64.30;;;;;;5054308;28;20063;-75
2022/07/15 11:45:48;;;;;;;2.90;0.82;;;21.60;65.30;;;;;;5063722;28;20035;-74
2022/07/15 11:48:14;;;;;;;4.07;0.60;;;21.70;65.50;;;;;;5046601;28;20401;-74
2022/07/15 11:50:56;;;;;;;2.75;0.60;;;22.00;64.00;;;;;;5049788;28;20028;-74
2022/07/15 11:53:23;;;;;;;1.70;0.70;;;22.20;62.10;;;;;;5055990;28;20032;-74
2022/07/15 11:55:51;;;;;;;4.60;0.77;;;22.50;61.60;;;;;;5054211;28;20312;-74
2022/07/15 11:58:36;;;;;;;2.58;0.60;;;22.60;61.30;;;;;;5049970;28;20040;-75
2022/07/15 12:01:07;;;;;;;3.78;0.80;;;22.80;60.00;;;;;;5071593;28;20081;-74
2022/07/15 12:03:36;;;;;;;4.32;0.68;;;22.80;60.10;;;;;;5051577;28;20106;-74
2022/07/15 12:06:03;;;;;;;3.90;0.85;;;22.80;60.60;;;;;;5066486;28;20027;-75
2022/07/15 12:08:39;;;;;;;2.28;0.50;;;22.70;60.40;;;;;;5073225;28;20622;-75
2022/07/15 12:11:18;;;;;;;2.50;0.80;;;22.70;60.30;;;;;;5067805;28;20040;-74
2022/07/15 12:13:49;;;;;;;4.50;0.70;;;22.80;59.50;;;;;;5043663;28;20029;-74
2022/07/15 12:16:19;;;;;;;2.83;0.70;;;22.80;59.90;;;;;;5067127;28;20037;-74
2022/07/15 12:18:46;;;;;;;3.80;0.73;;;22.90;58.80;;;;;;5054192;28;20074;-74
2022/07/15 12:21:12;;;;;;;1.48;0.57;;;23.10;56.60;;;;;;5060330;28;20025;-75
2022/07/15 12:23:37;;;;;;;1.42;0.63;;;23.10;55.30;;;;;;5071294;28;20038;-75
2022/07/15 12:26:09;;;;;;;3.45;0.80;;;23.10;55.70;;;;;;5074417;28;20040;-75
2022/07/15 12:28:36;;;;;;;5.82;0.77;;;23.40;56.50;;;;;;5061672;28;20029;-75
2022/07/15 12:31:03;;;;;;;4.32;0.60;;;23.80;56.70;;;;;;5048417;28;20294;-76
2022/07/15 12:33:34;;;;;;;4.88;0.70;;;24.30;56.10;;;;;;5046793;28;20390;-76
2022/07/15 12:36:21;;;;;;;1.95;0.50;;;24.50;55.30;;;;;;5059979;28;20046;-77
2022/07/15 12:39:02;;;;;;;4.32;1.00;;;24.60;54.50;;;;;;5043256;28;20052;-77
2022/07/15 12:41:28;;;;;;;4.00;0.70;;;24.30;51.60;;;;;;5058593;28;20033;-78
2022/07/15 12:43:59;;;;;;;4.13;0.90;;;23.80;53.40;;;;;;5049831;28;20032;-75
2022/07/15 12:46:53;;;;;;;4.85;1.00;;;23.70;53.40;;;;;;5046107;28;20339;-75
2022/07/15 12:49:45;;;;;;;5.05;1.00;;;23.50;54.70;;;;;;5059165;28;20058;-77
2022/07/15 12:52:34;;;;;;;3.88;0.88;;;23.50;54.70;;;;;;5059471;28;20070;-79
2022/07/15 12:55:18;;;;;;;2.20;0.60;;;23.50;55.30;;;;;;5055985;28;20052;-78
2022/07/15 12:57:44;;;;;;;4.13;0.70;;;23.50;55.30;;;;;;5067726;28;20173;-78
2022/07/15 13:00:13;;;;;;;2.97;1.00;;;23.50;56.10;;;;;;5070717;28;20481;-78
2022/07/15 13:03:05;;;;;;;3.60;0.80;;;23.50;56.00;;;;;;5050838;28;20411;-79